Aktualne dane pomiarowe

Uwaga, wersja testowa! Automatyczne pobieranie danych za pomocą narzędzi lub skryptów to umożliwiających jest zabronione.

Dane meteo z obszaru Polski uzyskane na podstawie depesz SYNOP pobieranych co godzinę z NWS. Najedź myszką na symbol przedstawiony w tabeli, aby uzyskać informacje co do jego znaczenia. Prosimy pamiętać, że to testowa wersja strony, która jeszcze nie jest ukończona. Stworzono również jest krótki FAQ dotyczący korzystania z tej podstrony Anomalie temperatury w chwili obecnej odniesione są do okresu referencyjnego 1951-2016. Okres ten będzie później zmieniony na 1981-2010. Kliknij ikonę aby pobrać plik CSV. Kliknij ikonę aby wygenerować mapę synoptyczną dla danego terminu.

Wybierz Datę:    

        

Sulejów (12469)

Dane terminowe dla wybranej stacji. Kliknij datę, aby otrzymać dane z tego terminu dla wszystkich stacji.

TemperaturaZachmurzenieWiatrCiśnienieOpadyPogoda
 Data t td wb tx tn tg rh  Nt Nl Cl Cm Ch ws wd g1 g2 wx mslp ppp ch 24h 12h t ww ww w1 w2  
2019-07-07 23:00:00 13.6 6.8 9.6--- 6350.0wxwxwxwx4wx--41010.4 987.9 0.8---------
2019-07-07 22:00:00 14.7 6.7 10.1--- 5950.0wxwxwx4wx--41010.0 987.6 0.9---------
2019-07-07 21:00:00 15.4 6.3 10.3--- 5550.0wxwxwx5wx--51009.7 987.3 0.9---------
2019-07-07 20:00:00 15.9 6.2 10.5--- 5350.0wxwxwx4wx--41009.4 987.1 1.4---------
2019-07-07 19:00:00 16.3 5.5 10.4--- 4950.0wxwxwx4wx---1009.0 986.7 1.4---------
2019-07-07 18:00:00 17.0 5.5 10.7 21.1 12.2- 4750.0wxwxwx5wx-1351008.6 986.4 1.4- 1.012------
2019-07-07 17:00:00 17.4 4.6 10.6--- 4340.0wxwxwxwx6wx---1007.9 985.7 0.4---------
2019-07-07 16:00:00 19.2 4.8 11.5--- 3935.0wxwxwxwx8wx---1007.3 985.3 -0.2---------
2019-07-07 15:00:00 20.5 5.6 12.4--- 3835.0wxwxwxwx7wx121371006.9 985.0 -0.7---------
2019-07-07 14:00:00 20.6 5.7 12.5--- 3835.0wxwxwxwx6wx111161007.2 985.3 -0.4---------
2019-07-07 13:00:00 20.3 6.2 12.5--- 4035.0wxwxwxwx8wx---1007.4 985.5 -0.1---------
2019-07-07 12:00:00 18.8 8.4 12.8--- 5135.0wxwxwxwx5wx-1151007.8 985.7 0.4- 1.06wx-w1--
2019-07-07 11:00:00 16.7 11.5 13.4--- 7125.0wxwxwxwx6wx---1007.9 985.7 0.7---------
2019-07-07 10:00:00 13.7 11.6 12.3--- 8718.0wxwxwx4wx--41008.1 985.6 0.9---------
2019-07-07 09:00:00 12.5 11.1 11.5--- 9114.0wxwxwx5wx-1151007.8 985.3 0.8---wx-w1--
2019-07-07 08:00:00 12.7 11.5 11.8--- 9210.0wxwxwx4wx--41007.5 985.0 0.9---wx-w1--
2019-07-07 07:00:00 14.1 10.8 11.9--- 8135.0wxwxwx5wx-1151007.1 984.7 1.1---wx-w1--
2019-07-07 06:00:00 15.4 13.7 14.2 21.4 14.4 14 9018.0wxwxwx4wx--41006.8 984.5 1.4 1.1 1.012wx-w1- 3.9
2019-07-07 05:00:00 15.4 14.2 14.5--- 9315.0wxwxwx3wx--31006.4 984.1 0.4---------
2019-07-07 04:00:00 14.7 14.0 14.2--- 9612.0wxwxwx2wx--21005.9 983.6 -0.6---------
2019-07-07 03:00:00 14.5 13.8 14.0--- 9615.0wxwxwxwx0---01005.4 983.1 -1.7---wx-w1--
2019-07-07 02:00:00 14.7 13.8 14.0--- 9418.0wxwxwxwx0---01006.0 983.7 -0.8---wx---
2019-07-07 01:00:00 15.0 13.9 14.2--- 9315.0wxwxwxwx2wx---1006.5 984.2 0.6---wx---
2019-07-07 00:00:00 16.2 12.6 13.8--- 7918.0wxwxwxwx2wx--21007.0 984.8 1.5- 0.16wx-w1--
2019-07-06 23:00:00 17.1 11.7 13.6--- 7150.0wxwxwxwx3wx--31006.7 984.5 1.4---wx-w1--
2019-07-06 22:00:00 17.1 12.5 14.1--- 7450.0wxwxwxwx4wx--41005.7 983.6 0.1---wx---
2019-07-06 21:00:00 17.7 12.3 14.2--- 7150.0wx-wx3wx--31005.4 983.3 -0.7---------
2019-07-06 20:00:00 17.7 11.6 13.8--- 6750.0wxwxwx2wx--21005.2 983.1 -1.1---------
2019-07-06 19:00:00 19.9 11.8 14.9--- 6050.0wxwxwx2wx--21005.4 983.5 -1.1---------
2019-07-06 18:00:00 21.4 11.3 15.3 25.2 14.9- 5345.0wxwxwxwx3wx--31005.8 984.0 -1.2- 0.012------
2019-07-06 17:00:00 23.5 10.8 15.9--- 4545.0wxwxwxwx2wx--21005.9 984.2 -1.6---------
2019-07-06 16:00:00 24.2 10.4 16.0--- 4245.0wxwxwxwx2wx--21006.2 984.6 -1.8---------
2019-07-06 15:00:00 24.6 10.0 16.0--- 4045.0wxwxwxwx3wx--31006.8 985.2 -1.4---------
2019-07-06 14:00:00 24.5 9.5 15.8--- 3945.0wxwxwxwx4wx--41007.4 985.8 -1.6---------
2019-07-06 13:00:00 23.8 10.4 15.9--- 4345.0wxwxwxwx5wx--51008.1 986.4 -1.4---------
2019-07-06 12:00:00 24.2 10.0 15.9--- 4140.0wxwxwxwx6wx-1261008.3 986.6 -1.6- 0.06------
2019-07-06 11:00:00 21.5 10.2 14.8--- 4945.0wxwxwx7wx-1171009.3 987.4 -1.5---------
2019-07-06 10:00:00 21.5 11.1 15.2--- 5228.0wxwxwxwx6wx--61009.7 987.8 -1.5---------
2019-07-06 09:00:00 21.0 11.0 14.9--- 5345.0wxwxwxwx5wx-851010.1 988.2 -1.3---------
2019-07-06 08:00:00 18.8 11.5 14.3--- 6345.0wxwxwxwx3wx--31011.0 988.9 -0.8---------
2019-07-06 07:00:00 16.4 12.3 13.7--- 7745.0wxwxwxwx3wx--31011.6 989.3 -0.4---------
2019-07-06 06:00:00 15.4 11.3 12.7 18.0 10.8 9 7730.0wxwxwxwx3wx--31011.9 989.5 -0.3--12wx-- 2.3
2019-07-06 05:00:00 15.4 10.7 12.4--- 7445.0wxwxwxwx3wx--31012.1 989.7 -0.1---------
2019-07-06 04:00:00 14.8 10.7 12.1--- 7645.0wxwxwx2wx--21012.2 989.7 -0.4---------
2019-07-06 03:00:00 14.6 10.3 11.8--- 7545.0wxwxwx2wx--21012.3 989.8 -0.5---------
2019-07-06 02:00:00 13.9 10.2 11.5--- 7845.0wxwxwx3wx--31012.3 989.8 -0.5---------
2019-07-06 01:00:00 12.7 9.4 10.6--- 8040.0wxwxwxwx2wx--21012.7 990.1 -0.2---------
2019-07-06 00:00:00 11.3 9.1 9.8--- 8635.0wxwxwxwx3wx--31013.1 990.3 -0.1- 0.06------
2.5 ms

 

Print Friendly, PDF & Email